sensor_id;sensor_type;location;lat;lon;timestamp;P1;durP1;ratioP1;P2;durP2;ratioP2
51840;SDS011;37888;53.246;6.658;2023-07-31T00:01:49;2.83;;;1.60;;
51840;SDS011;37888;53.246;6.658;2023-07-31T00:04:37;3.40;;;1.98;;
51840;SDS011;37888;53.246;6.658;2023-07-31T00:07:45;3.80;;;1.83;;
51840;SDS011;37888;53.246;6.658;2023-07-31T00:17:53;2.50;;;2.00;;
51840;SDS011;37888;53.246;6.658;2023-07-31T00:20:22;3.35;;;1.92;;
51840;SDS011;37888;53.246;6.658;2023-07-31T00:23:04;3.40;;;2.10;;
51840;SDS011;37888;53.246;6.658;2023-07-31T00:25:39;2.78;;;2.15;;
51840;SDS011;37888;53.246;6.658;2023-07-31T00:28:05;3.65;;;1.73;;
51840;SDS011;37888;53.246;6.658;2023-07-31T00:30:42;4.25;;;1.88;;
51840;SDS011;37888;53.246;6.658;2023-07-31T00:33:10;2.30;;;1.60;;
51840;SDS011;37888;53.246;6.658;2023-07-31T00:35:36;3.15;;;1.55;;
51840;SDS011;37888;53.246;6.658;2023-07-31T00:38:05;2.90;;;1.40;;
51840;SDS011;37888;53.246;6.658;2023-07-31T00:40:35;3.80;;;1.63;;
51840;SDS011;37888;53.246;6.658;2023-07-31T00:43:07;2.60;;;1.60;;
51840;SDS011;37888;53.246;6.658;2023-07-31T00:45:33;3.63;;;1.75;;
51840;SDS011;37888;53.246;6.658;2023-07-31T00:48:02;2.47;;;1.55;;
51840;SDS011;37888;53.246;6.658;2023-07-31T00:50:31;2.60;;;1.52;;
51840;SDS011;37888;53.246;6.658;2023-07-31T00:53:21;4.18;;;1.70;;
51840;SDS011;37888;53.246;6.658;2023-07-31T00:55:56;2.53;;;1.60;;
51840;SDS011;37888;53.246;6.658;2023-07-31T00:58:30;3.03;;;1.55;;
51840;SDS011;37888;53.246;6.658;2023-07-31T01:01:22;2.85;;;1.60;;
51840;SDS011;37888;53.246;6.658;2023-07-31T01:07:08;2.63;;;1.52;;
51840;SDS011;37888;53.246;6.658;2023-07-31T01:13:00;1.67;;;1.20;;
51840;SDS011;37888;53.246;6.658;2023-07-31T01:15:33;1.63;;;1.30;;
51840;SDS011;37888;53.246;6.658;2023-07-31T01:18:05;2.15;;;1.30;;
51840;SDS011;37888;53.246;6.658;2023-07-31T01:20:48;1.88;;;1.00;;
51840;SDS011;37888;53.246;6.658;2023-07-31T01:26:23;2.70;;;1.23;;
51840;SDS011;37888;53.246;6.658;2023-07-31T01:28:57;1.63;;;1.05;;
51840;SDS011;37888;53.246;6.658;2023-07-31T01:31:34;1.92;;;0.95;;
51840;SDS011;37888;53.246;6.658;2023-07-31T01:34:07;1.80;;;0.90;;
51840;SDS011;37888;53.246;6.658;2023-07-31T01:37:20;1.58;;;1.00;;
51840;SDS011;37888;53.246;6.658;2023-07-31T01:40:06;1.83;;;0.90;;
51840;SDS011;37888;53.246;6.658;2023-07-31T01:42:37;1.42;;;0.88;;
51840;SDS011;37888;53.246;6.658;2023-07-31T01:45:27;1.17;;;0.93;;
51840;SDS011;37888;53.246;6.658;2023-07-31T01:48:23;1.48;;;0.90;;
51840;SDS011;37888;53.246;6.658;2023-07-31T01:50:52;2.05;;;0.90;;
51840;SDS011;37888;53.246;6.658;2023-07-31T01:53:33;3.92;;;0.90;;
51840;SDS011;37888;53.246;6.658;2023-07-31T01:59:12;2.28;;;0.88;;
51840;SDS011;37888;53.246;6.658;2023-07-31T02:02:10;0.90;;;0.80;;
51840;SDS011;37888;53.246;6.658;2023-07-31T02:04:36;1.33;;;0.90;;
51840;SDS011;37888;53.246;6.658;2023-07-31T02:07:27;2.03;;;0.90;;
51840;SDS011;37888;53.246;6.658;2023-07-31T02:10:07;1.55;;;0.88;;
51840;SDS011;37888;53.246;6.658;2023-07-31T02:12:39;1.23;;;0.70;;
51840;SDS011;37888;53.246;6.658;2023-07-31T02:15:26;3.20;;;0.90;;
51840;SDS011;37888;53.246;6.658;2023-07-31T02:18:23;1.98;;;0.60;;
51840;SDS011;37888;53.246;6.658;2023-07-31T02:21:00;1.40;;;0.70;;
51840;SDS011;37888;53.246;6.658;2023-07-31T02:24:14;1.70;;;0.85;;
51840;SDS011;37888;53.246;6.658;2023-07-31T02:30:03;1.73;;;0.52;;
51840;SDS011;37888;53.246;6.658;2023-07-31T02:32:49;1.15;;;0.55;;
51840;SDS011;37888;53.246;6.658;2023-07-31T02:38:49;0.70;;;0.70;;
51840;SDS011;37888;53.246;6.658;2023-07-31T02:41:38;0.43;;;0.40;;
51840;SDS011;37888;53.246;6.658;2023-07-31T02:44:04;0.30;;;0.30;;
51840;SDS011;37888;53.246;6.658;2023-07-31T02:47:08;1.40;;;0.43;;
51840;SDS011;37888;53.246;6.658;2023-07-31T02:50:06;1.38;;;0.50;;
51840;SDS011;37888;53.246;6.658;2023-07-31T02:53:10;3.47;;;0.70;;
51840;SDS011;37888;53.246;6.658;2023-07-31T02:55:57;0.60;;;0.40;;
51840;SDS011;37888;53.246;6.658;2023-07-31T05:16:34;0.90;;;0.30;;
51840;SDS011;37888;53.246;6.658;2023-07-31T05:19:00;0.80;;;0.43;;
51840;SDS011;37888;53.246;6.658;2023-07-31T05:21:38;0.68;;;0.22;;
51840;SDS011;37888;53.246;6.658;2023-07-31T05:24:06;1.15;;;0.50;;
51840;SDS011;37888;53.246;6.658;2023-07-31T05:26:35;1.48;;;0.55;;
51840;SDS011;37888;53.246;6.658;2023-07-31T05:29:00;1.42;;;0.50;;
51840;SDS011;37888;53.246;6.658;2023-07-31T05:31:34;1.23;;;0.43;;
51840;SDS011;37888;53.246;6.658;2023-07-31T05:34:24;1.10;;;0.40;;
51840;SDS011;37888;53.246;6.658;2023-07-31T05:36:57;2.45;;;0.20;;
51840;SDS011;37888;53.246;6.658;2023-07-31T05:39:23;1.55;;;0.30;;
51840;SDS011;37888;53.246;6.658;2023-07-31T05:41:57;0.95;;;0.30;;
51840;SDS011;37888;53.246;6.658;2023-07-31T05:44:29;1.15;;;0.40;;
51840;SDS011;37888;53.246;6.658;2023-07-31T05:47:14;1.25;;;0.30;;
51840;SDS011;37888;53.246;6.658;2023-07-31T05:49:50;3.42;;;0.35;;
51840;SDS011;37888;53.246;6.658;2023-07-31T05:52:41;0.75;;;0.20;;
51840;SDS011;37888;53.246;6.658;2023-07-31T05:55:31;0.68;;;0.20;;
51840;SDS011;37888;53.246;6.658;2023-07-31T08:05:10;3.15;;;1.65;;
51840;SDS011;37888;53.246;6.658;2023-07-31T09:14:52;0.63;;;0.40;;
51840;SDS011;37888;53.246;6.658;2023-07-31T09:38:44;0.70;;;0.30;;
51840;SDS011;37888;53.246;6.658;2023-07-31T11:23:37;0.40;;;0.20;;
51840;SDS011;37888;53.246;6.658;2023-07-31T11:26:34;0.77;;;0.30;;
51840;SDS011;37888;53.246;6.658;2023-07-31T11:29:14;1.08;;;0.30;;
51840;SDS011;37888;53.246;6.658;2023-07-31T11:31:50;0.70;;;0.30;;
51840;SDS011;37888;53.246;6.658;2023-07-31T11:39:40;0.55;;;0.28;;
51840;SDS011;37888;53.246;6.658;2023-07-31T12:57:44;0.82;;;0.50;;
51840;SDS011;37888;53.246;6.658;2023-07-31T13:00:22;0.90;;;0.32;;
51840;SDS011;37888;53.246;6.658;2023-07-31T13:02:54;1.40;;;0.57;;
51840;SDS011;37888;53.246;6.658;2023-07-31T13:05:23;1.10;;;0.50;;
51840;SDS011;37888;53.246;6.658;2023-07-31T13:07:49;1.40;;;0.50;;
51840;SDS011;37888;53.246;6.658;2023-07-31T13:10:15;1.00;;;0.70;;
51840;SDS011;37888;53.246;6.658;2023-07-31T13:12:43;1.80;;;0.68;;
51840;SDS011;37888;53.246;6.658;2023-07-31T13:15:09;1.50;;;0.68;;
51840;SDS011;37888;53.246;6.658;2023-07-31T13:17:35;1.63;;;0.70;;
51840;SDS011;37888;53.246;6.658;2023-07-31T13:20:02;2.58;;;0.95;;
51840;SDS011;37888;53.246;6.658;2023-07-31T13:22:34;3.17;;;0.70;;
51840;SDS011;37888;53.246;6.658;2023-07-31T13:24:59;1.48;;;0.70;;
51840;SDS011;37888;53.246;6.658;2023-07-31T13:27:28;3.13;;;0.80;;
51840;SDS011;37888;53.246;6.658;2023-07-31T13:29:57;1.45;;;0.60;;
51840;SDS011;37888;53.246;6.658;2023-07-31T13:32:26;2.33;;;0.60;;
51840;SDS011;37888;53.246;6.658;2023-07-31T13:34:57;1.83;;;1.00;;
51840;SDS011;37888;53.246;6.658;2023-07-31T13:37:29;2.53;;;1.02;;
51840;SDS011;37888;53.246;6.658;2023-07-31T13:39:57;3.30;;;0.90;;
51840;SDS011;37888;53.246;6.658;2023-07-31T13:42:31;2.20;;;1.17;;
51840;SDS011;37888;53.246;6.658;2023-07-31T13:45:09;5.35;;;1.05;;
51840;SDS011;37888;53.246;6.658;2023-07-31T13:48:30;4.00;;;1.00;;
51840;SDS011;37888;53.246;6.658;2023-07-31T13:51:08;2.25;;;0.85;;
51840;SDS011;37888;53.246;6.658;2023-07-31T14:05:38;2.85;;;1.00;;
51840;SDS011;37888;53.246;6.658;2023-07-31T14:12:08;2.15;;;1.20;;
51840;SDS011;37888;53.246;6.658;2023-07-31T14:22:02;3.75;;;1.25;;
51840;SDS011;37888;53.246;6.658;2023-07-31T14:24:35;3.40;;;1.27;;
51840;SDS011;37888;53.246;6.658;2023-07-31T14:27:01;3.17;;;1.30;;
51840;SDS011;37888;53.246;6.658;2023-07-31T14:29:27;2.28;;;1.48;;
51840;SDS011;37888;53.246;6.658;2023-07-31T14:31:56;3.28;;;1.40;;
51840;SDS011;37888;53.246;6.658;2023-07-31T14:34:55;3.33;;;1.23;;
51840;SDS011;37888;53.246;6.658;2023-07-31T14:37:25;3.97;;;1.38;;
51840;SDS011;37888;53.246;6.658;2023-07-31T14:42:41;2.88;;;1.40;;
51840;SDS011;37888;53.246;6.658;2023-07-31T14:45:07;3.08;;;1.48;;
51840;SDS011;37888;53.246;6.658;2023-07-31T14:47:37;4.57;;;1.40;;
51840;SDS011;37888;53.246;6.658;2023-07-31T14:50:06;6.85;;;1.42;;
51840;SDS011;37888;53.246;6.658;2023-07-31T14:52:35;4.82;;;1.60;;
51840;SDS011;37888;53.246;6.658;2023-07-31T14:55:04;2.85;;;1.50;;
51840;SDS011;37888;53.246;6.658;2023-07-31T14:57:42;4.07;;;1.75;;
51840;SDS011;37888;53.246;6.658;2023-07-31T15:00:08;5.20;;;1.85;;
51840;SDS011;37888;53.246;6.658;2023-07-31T15:05:24;4.45;;;1.67;;
51840;SDS011;37888;53.246;6.658;2023-07-31T15:14:48;5.70;;;2.00;;
51840;SDS011;37888;53.246;6.658;2023-07-31T15:17:48;3.40;;;1.83;;
51840;SDS011;37888;53.246;6.658;2023-07-31T15:20:14;4.60;;;1.95;;
51840;SDS011;37888;53.246;6.658;2023-07-31T16:21:39;4.78;;;1.70;;
51840;SDS011;37888;53.246;6.658;2023-07-31T16:24:12;4.55;;;1.65;;
51840;SDS011;37888;53.246;6.658;2023-07-31T16:26:38;6.07;;;1.13;;
51840;SDS011;37888;53.246;6.658;2023-07-31T16:29:55;5.05;;;1.48;;
51840;SDS011;37888;53.246;6.658;2023-07-31T16:32:53;4.18;;;1.40;;
51840;SDS011;37888;53.246;6.658;2023-07-31T16:35:57;3.97;;;1.48;;
51840;SDS011;37888;53.246;6.658;2023-07-31T16:38:37;3.60;;;1.43;;
51840;SDS011;37888;53.246;6.658;2023-07-31T16:43:58;4.25;;;1.10;;
51840;SDS011;37888;53.246;6.658;2023-07-31T16:47:11;2.92;;;1.23;;
51840;SDS011;37888;53.246;6.658;2023-07-31T16:49:46;4.07;;;1.42;;
51840;SDS011;37888;53.246;6.658;2023-07-31T16:52:28;4.97;;;1.17;;
51840;SDS011;37888;53.246;6.658;2023-07-31T16:54:54;4.07;;;1.40;;
51840;SDS011;37888;53.246;6.658;2023-07-31T16:57:31;2.97;;;1.20;;
51840;SDS011;37888;53.246;6.658;2023-07-31T17:00:02;5.18;;;1.38;;
51840;SDS011;37888;53.246;6.658;2023-07-31T17:02:47;3.67;;;1.30;;
51840;SDS011;37888;53.246;6.658;2023-07-31T17:05:17;2.83;;;1.17;;
51840;SDS011;37888;53.246;6.658;2023-07-31T17:07:46;4.72;;;1.30;;
51840;SDS011;37888;53.246;6.658;2023-07-31T17:10:12;3.03;;;1.42;;
51840;SDS011;37888;53.246;6.658;2023-07-31T17:12:44;4.88;;;1.15;;
51840;SDS011;37888;53.246;6.658;2023-07-31T17:15:13;2.63;;;1.30;;
51840;SDS011;37888;53.246;6.658;2023-07-31T17:17:44;2.92;;;1.27;;
51840;SDS011;37888;53.246;6.658;2023-07-31T17:20:19;3.53;;;1.27;;
51840;SDS011;37888;53.246;6.658;2023-07-31T17:22:49;3.15;;;1.10;;
51840;SDS011;37888;53.246;6.658;2023-07-31T17:25:29;3.67;;;1.35;;
51840;SDS011;37888;53.246;6.658;2023-07-31T17:27:57;1.95;;;1.13;;
51840;SDS011;37888;53.246;6.658;2023-07-31T17:30:23;2.88;;;1.30;;
51840;SDS011;37888;53.246;6.658;2023-07-31T17:32:52;3.55;;;1.33;;
51840;SDS011;37888;53.246;6.658;2023-07-31T17:35:21;3.08;;;1.35;;
51840;SDS011;37888;53.246;6.658;2023-07-31T17:37:47;4.13;;;1.45;;
51840;SDS011;37888;53.246;6.658;2023-07-31T17:40:13;2.85;;;1.52;;
51840;SDS011;37888;53.246;6.658;2023-07-31T17:42:39;3.97;;;1.25;;
51840;SDS011;37888;53.246;6.658;2023-07-31T17:45:05;2.83;;;1.40;;
51840;SDS011;37888;53.246;6.658;2023-07-31T17:47:31;2.90;;;1.27;;
51840;SDS011;37888;53.246;6.658;2023-07-31T17:49:57;2.30;;;1.38;;
51840;SDS011;37888;53.246;6.658;2023-07-31T17:52:23;3.75;;;1.27;;
51840;SDS011;37888;53.246;6.658;2023-07-31T17:54:49;2.80;;;1.30;;
51840;SDS011;37888;53.246;6.658;2023-07-31T17:57:19;2.92;;;1.27;;
51840;SDS011;37888;53.246;6.658;2023-07-31T17:59:45;1.70;;;1.10;;
51840;SDS011;37888;53.246;6.658;2023-07-31T18:02:12;3.08;;;1.20;;
51840;SDS011;37888;53.246;6.658;2023-07-31T18:04:38;2.45;;;1.35;;
51840;SDS011;37888;53.246;6.658;2023-07-31T18:07:04;3.17;;;1.50;;
51840;SDS011;37888;53.246;6.658;2023-07-31T18:09:30;2.72;;;1.30;;
51840;SDS011;37888;53.246;6.658;2023-07-31T18:12:01;2.92;;;1.27;;
51840;SDS011;37888;53.246;6.658;2023-07-31T18:14:27;4.82;;;2.00;;
51840;SDS011;37888;53.246;6.658;2023-07-31T18:16:53;3.83;;;1.25;;
51840;SDS011;37888;53.246;6.658;2023-07-31T18:19:21;3.33;;;1.50;;
51840;SDS011;37888;53.246;6.658;2023-07-31T18:21:50;3.15;;;1.20;;
51840;SDS011;37888;53.246;6.658;2023-07-31T18:24:16;3.25;;;1.20;;
51840;SDS011;37888;53.246;6.658;2023-07-31T18:26:42;3.45;;;1.50;;
51840;SDS011;37888;53.246;6.658;2023-07-31T18:29:08;2.92;;;1.40;;
51840;SDS011;37888;53.246;6.658;2023-07-31T18:31:36;3.58;;;1.33;;
51840;SDS011;37888;53.246;6.658;2023-07-31T18:34:02;4.05;;;1.55;;
51840;SDS011;37888;53.246;6.658;2023-07-31T18:36:30;2.17;;;1.42;;
51840;SDS011;37888;53.246;6.658;2023-07-31T18:39:01;6.45;;;1.63;;
51840;SDS011;37888;53.246;6.658;2023-07-31T18:41:30;5.95;;;1.50;;
51840;SDS011;37888;53.246;6.658;2023-07-31T18:44:07;3.75;;;1.20;;
51840;SDS011;37888;53.246;6.658;2023-07-31T18:46:48;2.42;;;1.17;;
51840;SDS011;37888;53.246;6.658;2023-07-31T18:49:28;6.28;;;1.58;;
51840;SDS011;37888;53.246;6.658;2023-07-31T18:51:54;3.00;;;1.30;;
51840;SDS011;37888;53.246;6.658;2023-07-31T18:54:20;5.10;;;1.80;;
51840;SDS011;37888;53.246;6.658;2023-07-31T18:56:51;2.90;;;1.70;;
51840;SDS011;37888;53.246;6.658;2023-07-31T18:59:17;3.30;;;1.70;;
51840;SDS011;37888;53.246;6.658;2023-07-31T19:01:43;3.85;;;1.15;;
51840;SDS011;37888;53.246;6.658;2023-07-31T19:04:17;3.13;;;1.70;;
51840;SDS011;37888;53.246;6.658;2023-07-31T19:06:49;3.33;;;1.50;;
51840;SDS011;37888;53.246;6.658;2023-07-31T19:09:15;3.00;;;1.73;;
51840;SDS011;37888;53.246;6.658;2023-07-31T19:11:53;2.30;;;1.30;;
51840;SDS011;37888;53.246;6.658;2023-07-31T19:14:19;4.05;;;1.50;;
51840;SDS011;37888;53.246;6.658;2023-07-31T19:16:45;3.63;;;1.50;;
51840;SDS011;37888;53.246;6.658;2023-07-31T19:19:11;3.35;;;1.45;;
51840;SDS011;37888;53.246;6.658;2023-07-31T19:21:39;4.18;;;1.35;;
51840;SDS011;37888;53.246;6.658;2023-07-31T19:24:10;4.22;;;1.58;;
51840;SDS011;37888;53.246;6.658;2023-07-31T19:26:38;3.60;;;1.42;;
51840;SDS011;37888;53.246;6.658;2023-07-31T19:29:14;2.30;;;1.40;;
51840;SDS011;37888;53.246;6.658;2023-07-31T19:31:43;3.33;;;1.70;;
51840;SDS011;37888;53.246;6.658;2023-07-31T19:34:11;3.13;;;1.60;;
51840;SDS011;37888;53.246;6.658;2023-07-31T19:36:40;4.55;;;1.67;;
51840;SDS011;37888;53.246;6.658;2023-07-31T19:39:07;2.95;;;1.40;;
51840;SDS011;37888;53.246;6.658;2023-07-31T19:41:35;4.00;;;1.63;;
51840;SDS011;37888;53.246;6.658;2023-07-31T19:44:04;3.42;;;1.40;;
51840;SDS011;37888;53.246;6.658;2023-07-31T19:46:29;5.35;;;1.70;;
51840;SDS011;37888;53.246;6.658;2023-07-31T19:48:55;4.05;;;1.65;;
51840;SDS011;37888;53.246;6.658;2023-07-31T19:51:23;4.22;;;1.42;;
51840;SDS011;37888;53.246;6.658;2023-07-31T20:07:21;2.78;;;1.52;;
51840;SDS011;37888;53.246;6.658;2023-07-31T20:09:47;4.50;;;1.83;;
51840;SDS011;37888;53.246;6.658;2023-07-31T20:12:27;4.32;;;1.75;;
51840;SDS011;37888;53.246;6.658;2023-07-31T20:14:53;5.13;;;1.95;;
51840;SDS011;37888;53.246;6.658;2023-07-31T20:17:20;4.90;;;1.88;;
51840;SDS011;37888;53.246;6.658;2023-07-31T20:22:12;4.47;;;1.55;;
51840;SDS011;37888;53.246;6.658;2023-07-31T20:24:38;6.32;;;1.88;;
51840;SDS011;37888;53.246;6.658;2023-07-31T20:27:04;3.05;;;1.30;;
51840;SDS011;37888;53.246;6.658;2023-07-31T20:29:31;3.83;;;1.08;;
51840;SDS011;37888;53.246;6.658;2023-07-31T20:31:57;2.10;;;1.05;;
51840;SDS011;37888;53.246;6.658;2023-07-31T20:34:23;2.38;;;1.33;;
51840;SDS011;37888;53.246;6.658;2023-07-31T20:36:48;4.55;;;1.20;;
51840;SDS011;37888;53.246;6.658;2023-07-31T20:39:14;2.55;;;1.20;;
51840;SDS011;37888;53.246;6.658;2023-07-31T20:41:40;5.63;;;1.95;;
51840;SDS011;37888;53.246;6.658;2023-07-31T20:44:07;2.90;;;1.80;;
51840;SDS011;37888;53.246;6.658;2023-07-31T20:46:33;4.57;;;1.85;;
51840;SDS011;37888;53.246;6.658;2023-07-31T20:49:01;5.72;;;2.05;;
51840;SDS011;37888;53.246;6.658;2023-07-31T20:55:06;6.32;;;2.33;;
51840;SDS011;37888;53.246;6.658;2023-07-31T20:57:43;5.47;;;1.73;;
51840;SDS011;37888;53.246;6.658;2023-07-31T21:00:23;6.43;;;2.00;;
51840;SDS011;37888;53.246;6.658;2023-07-31T21:02:54;5.32;;;1.73;;
51840;SDS011;37888;53.246;6.658;2023-07-31T21:05:23;6.45;;;2.53;;
51840;SDS011;37888;53.246;6.658;2023-07-31T21:07:57;6.15;;;1.98;;
51840;SDS011;37888;53.246;6.658;2023-07-31T21:10:26;3.40;;;1.85;;
51840;SDS011;37888;53.246;6.658;2023-07-31T21:13:03;5.28;;;1.88;;
51840;SDS011;37888;53.246;6.658;2023-07-31T21:15:32;8.18;;;2.50;;
51840;SDS011;37888;53.246;6.658;2023-07-31T21:18:11;4.57;;;1.60;;
51840;SDS011;37888;53.246;6.658;2023-07-31T21:20:56;6.78;;;1.83;;
51840;SDS011;37888;53.246;6.658;2023-07-31T21:30:31;6.55;;;2.20;;
51840;SDS011;37888;53.246;6.658;2023-07-31T21:33:16;6.25;;;2.53;;
51840;SDS011;37888;53.246;6.658;2023-07-31T21:35:42;3.58;;;1.80;;
51840;SDS011;37888;53.246;6.658;2023-07-31T21:38:08;4.53;;;1.83;;
51840;SDS011;37888;53.246;6.658;2023-07-31T21:40:36;6.18;;;2.10;;
51840;SDS011;37888;53.246;6.658;2023-07-31T21:43:04;3.38;;;1.55;;
51840;SDS011;37888;53.246;6.658;2023-07-31T21:45:30;4.70;;;2.10;;
51840;SDS011;37888;53.246;6.658;2023-07-31T21:47:56;4.85;;;1.35;;
51840;SDS011;37888;53.246;6.658;2023-07-31T21:50:22;4.55;;;1.83;;
51840;SDS011;37888;53.246;6.658;2023-07-31T21:52:47;3.97;;;1.50;;
51840;SDS011;37888;53.246;6.658;2023-07-31T21:55:13;4.57;;;1.60;;
51840;SDS011;37888;53.246;6.658;2023-07-31T21:57:39;3.95;;;1.70;;
51840;SDS011;37888;53.246;6.658;2023-07-31T22:00:05;6.78;;;1.60;;
51840;SDS011;37888;53.246;6.658;2023-07-31T22:02:31;2.53;;;1.08;;
51840;SDS011;37888;53.246;6.658;2023-07-31T22:04:57;5.20;;;1.38;;
51840;SDS011;37888;53.246;6.658;2023-07-31T22:07:23;4.28;;;1.52;;
51840;SDS011;37888;53.246;6.658;2023-07-31T22:09:49;4.60;;;1.40;;
51840;SDS011;37888;53.246;6.658;2023-07-31T22:12:17;5.55;;;1.70;;
51840;SDS011;37888;53.246;6.658;2023-07-31T22:14:43;5.13;;;1.77;;
51840;SDS011;37888;53.246;6.658;2023-07-31T22:17:09;4.00;;;1.42;;
51840;SDS011;37888;53.246;6.658;2023-07-31T22:19:34;5.07;;;1.60;;
51840;SDS011;37888;53.246;6.658;2023-07-31T22:22:02;6.57;;;1.67;;
51840;SDS011;37888;53.246;6.658;2023-07-31T22:24:29;5.50;;;1.70;;
51840;SDS011;37888;53.246;6.658;2023-07-31T22:26:55;9.18;;;1.65;;
51840;SDS011;37888;53.246;6.658;2023-07-31T22:29:21;8.37;;;1.50;;
51840;SDS011;37888;53.246;6.658;2023-07-31T22:31:47;5.45;;;1.75;;
51840;SDS011;37888;53.246;6.658;2023-07-31T22:34:12;8.20;;;2.15;;
51840;SDS011;37888;53.246;6.658;2023-07-31T22:36:38;5.63;;;1.60;;
51840;SDS011;37888;53.246;6.658;2023-07-31T22:39:04;6.00;;;1.98;;
51840;SDS011;37888;53.246;6.658;2023-07-31T22:41:30;6.07;;;2.20;;
51840;SDS011;37888;53.246;6.658;2023-07-31T22:43:56;4.90;;;1.70;;
51840;SDS011;37888;53.246;6.658;2023-07-31T22:46:22;6.57;;;1.88;;
51840;SDS011;37888;53.246;6.658;2023-07-31T22:48:48;7.10;;;2.03;;
51840;SDS011;37888;53.246;6.658;2023-07-31T22:51:14;3.22;;;1.67;;
51840;SDS011;37888;53.246;6.658;2023-07-31T22:53:40;7.70;;;1.88;;
51840;SDS011;37888;53.246;6.658;2023-07-31T22:56:06;5.30;;;1.88;;
51840;SDS011;37888;53.246;6.658;2023-07-31T22:58:32;6.35;;;2.40;;
51840;SDS011;37888;53.246;6.658;2023-07-31T23:01:01;9.63;;;2.10;;
51840;SDS011;37888;53.246;6.658;2023-07-31T23:03:28;5.95;;;1.80;;
51840;SDS011;37888;53.246;6.658;2023-07-31T23:05:53;6.68;;;1.75;;
51840;SDS011;37888;53.246;6.658;2023-07-31T23:08:19;4.78;;;1.88;;
51840;SDS011;37888;53.246;6.658;2023-07-31T23:10:48;6.25;;;2.30;;
51840;SDS011;37888;53.246;6.658;2023-07-31T23:13:14;7.05;;;2.00;;
51840;SDS011;37888;53.246;6.658;2023-07-31T23:15:40;6.18;;;2.92;;
51840;SDS011;37888;53.246;6.658;2023-07-31T23:18:07;5.50;;;1.92;;
51840;SDS011;37888;53.246;6.658;2023-07-31T23:20:33;7.63;;;2.20;;
51840;SDS011;37888;53.246;6.658;2023-07-31T23:22:59;6.57;;;1.80;;
51840;SDS011;37888;53.246;6.658;2023-07-31T23:25:25;6.82;;;2.35;;
51840;SDS011;37888;53.246;6.658;2023-07-31T23:27:50;6.18;;;2.33;;
51840;SDS011;37888;53.246;6.658;2023-07-31T23:30:16;6.13;;;2.28;;
51840;SDS011;37888;53.246;6.658;2023-07-31T23:32:42;7.05;;;2.25;;
51840;SDS011;37888;53.246;6.658;2023-07-31T23:35:07;6.30;;;2.47;;
51840;SDS011;37888;53.246;6.658;2023-07-31T23:37:33;5.57;;;2.13;;
51840;SDS011;37888;53.246;6.658;2023-07-31T23:39:59;5.88;;;2.40;;
51840;SDS011;37888;53.246;6.658;2023-07-31T23:42:25;7.05;;;2.30;;
51840;SDS011;37888;53.246;6.658;2023-07-31T23:44:50;8.43;;;2.50;;
51840;SDS011;37888;53.246;6.658;2023-07-31T23:47:16;11.00;;;2.60;;
51840;SDS011;37888;53.246;6.658;2023-07-31T23:49:42;6.07;;;2.20;;
51840;SDS011;37888;53.246;6.658;2023-07-31T23:52:08;12.38;;;2.78;;
51840;SDS011;37888;53.246;6.658;2023-07-31T23:54:34;8.70;;;3.03;;
51840;SDS011;37888;53.246;6.658;2023-07-31T23:57:00;7.95;;;2.35;;
51840;SDS011;37888;53.246;6.658;2023-07-31T23:59:25;6.43;;;2.85;;
